Weather History for Clarinda, IA

Change the Weather History Date:

Saturday, March 15, 2014

  Actual Average Record
Temperature  
Mean Temperature 47 °F -  
Max Temperature 68 °F 46 °F 80 °F (2003)
Min Temperature 26 °F 26 °F 12 °F (2005)
Degree Days  
Heating Degree Days 18    
Moisture  
Dew Point 27 °F    
Average Humidity 58    
Maximum Humidity 86    
Minimum Humidity 23    
Precipitation  
Precipitation 0.00 in - - ()
Sea Level Pressure  
Sea Level Pressure 29.95 in    
Wind  
Wind Speed 7 mph (ENE)    
Max Wind Speed 30 mph    
Max Gust Speed 43 mph    
Visibility 10 miles    
Events      
Averages and records for this station are not official NWS values.
T = Trace of Precipitation, MM = Missing Value Source: NWS Daily Summary

Daily Weather History Graph

Daily Weather History Graph

Search for Another Location

Airport:

Trip Planner

Search our weather history database for the weather conditions in past years. The results will help you decide how hot, cold, wet, or windy it might be!

Date:

Astronomy

Mar. 15, 2014 Rise Set
Actual Time 7:31 AM CDT 7:26 PM CDT
Civil Twilight 7:04 AM CDT 7:54 PM CDT
Nautical Twilight 6:32 AM CDT 8:26 PM CDT
Astronomical Twilight 6:00 AM CDT 8:58 PM CDT
Moon 6:47 PM CDT (3/15) 6:44 AM CDT (3/15)
Length of Visible Light 12h 49m
Length of Day
11h 55m
Waxing Gibbous, 99% of the Moon is Illuminated
Mar 15
Waxing Gibbous
Mar 16
Full
Mar 23
Last Quarter
Mar 30
New
Apr 7
First Quarter

Hourly Weather History & Observations

Time (CDT) Temp. Windchill Dew Point Humidity Pressure Visibility Wind Dir Wind Speed Gust Speed Precip Events Conditions
12:15 AM 26.6 °F - 23.0 °F 86% 29.98 in 10.0 mi Calm Calm - N/A   Clear
12:35 AM 26.6 °F - 23.0 °F 86% 29.97 in 10.0 mi Calm Calm - N/A   Clear
12:55 AM 26.6 °F - 23.0 °F 86% 29.97 in 10.0 mi Calm Calm - N/A   Clear
1:15 AM 26.6 °F - 23.0 °F 86% 29.97 in 10.0 mi Calm Calm - N/A   Clear
1:35 AM 26.6 °F - 23.0 °F 86% 29.96 in 10.0 mi Calm Calm - N/A   Clear
1:55 AM 26.6 °F - 23.0 °F 86% 29.97 in 10.0 mi Calm Calm - N/A   Clear
2:15 AM 26.6 °F - 23.0 °F 86% 29.96 in 10.0 mi Calm Calm - N/A   Clear
2:35 AM 26.6 °F 21.2 °F 23.0 °F 86% 29.96 in 10.0 mi North 4.6 mph - N/A   Clear
2:55 AM 26.6 °F 21.2 °F 23.0 °F 86% 29.96 in 10.0 mi NNE 4.6 mph - N/A   Clear
3:15 AM 28.4 °F - 23.0 °F 80% 29.96 in 10.0 mi Calm Calm - N/A   Clear
3:35 AM 26.6 °F 21.2 °F 23.0 °F 86% 29.95 in 10.0 mi NNE 4.6 mph - N/A   Clear
3:55 AM 28.4 °F 23.3 °F 23.0 °F 80% 29.95 in 10.0 mi NNE 4.6 mph - N/A   Clear
4:15 AM 26.6 °F 22.6 °F 23.0 °F 86% 29.94 in 10.0 mi North 3.5 mph - N/A   Clear
4:35 AM 26.6 °F 20.0 °F 23.0 °F 86% 29.94 in 10.0 mi North 5.8 mph - N/A   Clear
4:55 AM 26.6 °F 21.2 °F 23.0 °F 86% 29.94 in 10.0 mi NNE 4.6 mph - N/A   Clear
5:15 AM 26.6 °F 21.2 °F 23.0 °F 86% 29.94 in 10.0 mi NNE 4.6 mph - N/A   Clear
5:35 AM 26.6 °F 22.6 °F 23.0 °F 86% 29.94 in 10.0 mi North 3.5 mph - N/A   Partly Cloudy
5:55 AM 28.4 °F 23.3 °F 23.0 °F 80% 29.94 in 10.0 mi North 4.6 mph - N/A   Partly Cloudy
6:15 AM 30.2 °F - 23.0 °F 75% 29.93 in 10.0 mi Calm Calm - N/A   Clear
6:35 AM 35.6 °F - 23.0 °F 60% 29.92 in 10.0 mi Calm Calm - N/A   Clear
6:55 AM 37.4 °F - 23.0 °F 56% 29.92 in 10.0 mi Calm Calm - N/A   Clear
7:15 AM 35.6 °F 32.8 °F 24.8 °F 65% 29.92 in 10.0 mi Variable 3.5 mph - N/A   Clear
7:35 AM 35.6 °F 31.7 °F 24.8 °F 65% 29.92 in 10.0 mi East 4.6 mph - N/A   Clear
7:55 AM 35.6 °F - 24.8 °F 65% 29.93 in 10.0 mi Calm Calm - N/A   Clear
8:15 AM 37.4 °F 33.8 °F 24.8 °F 60% 29.93 in 10.0 mi SSE 4.6 mph - N/A   Clear
8:35 AM 39.2 °F 37.0 °F 24.8 °F 56% 29.93 in 10.0 mi SSE 3.5 mph - N/A   Clear
8:55 AM 41.0 °F 38.0 °F 26.6 °F 57% 29.93 in 10.0 mi ESE 4.6 mph - N/A   Clear
9:15 AM 42.8 °F 39.3 °F 28.4 °F 57% 29.93 in 10.0 mi East 5.8 mph - N/A   Clear
9:35 AM 44.6 °F 40.7 °F 28.4 °F 53% 29.93 in 10.0 mi SE 6.9 mph - N/A   Clear
9:55 AM 46.4 °F 42.4 °F 28.4 °F 50% 29.94 in 10.0 mi SE 8.1 mph - N/A   Clear
10:15 AM 48.2 °F - 28.4 °F 46% 29.93 in 10.0 mi ESE 9.2 mph - N/A   Mostly Cloudy
10:35 AM 48.2 °F - 26.6 °F 43% 29.93 in 10.0 mi SE 9.2 mph - N/A   Mostly Cloudy
10:55 AM 51.8 °F - 26.6 °F 38% 29.92 in 10.0 mi SSE 9.2 mph 16.1 mph N/A   Clear
11:15 AM 53.6 °F - 26.6 °F 35% 29.92 in 10.0 mi SSE 10.4 mph - N/A   Clear
11:35 AM 55.4 °F - 28.4 °F 36% 29.92 in - SSE 11.5 mph 17.3 mph N/A   Clear
11:55 AM 57.2 °F - 28.4 °F 33% 29.92 in 10.0 mi SE 9.2 mph - N/A   Clear
12:15 PM 59.0 °F - 28.4 °F 31% 29.92 in 10.0 mi SSE 11.5 mph - N/A   Clear
12:35 PM 59.0 °F - 28.4 °F 31% 29.91 in 10.0 mi South 10.4 mph 17.3 mph N/A   Clear
1:15 PM 60.8 °F - 30.2 °F 31% 29.90 in 10.0 mi SE 9.2 mph 16.1 mph N/A   Clear
1:35 PM 62.6 °F - 32.0 °F 32% 29.89 in 10.0 mi Variable 4.6 mph 13.8 mph N/A   Clear
1:55 PM 62.6 °F - 32.0 °F 32% 29.88 in 10.0 mi ESE 9.2 mph - N/A   Clear
2:15 PM 66.2 °F - 32.0 °F 28% 29.87 in 10.0 mi ESE 9.2 mph - N/A   Clear
2:35 PM 66.2 °F - 30.2 °F 26% 29.85 in 10.0 mi SE 10.4 mph - N/A   Clear
2:55 PM 68.0 °F - 28.4 °F 23% 29.85 in 10.0 mi South 9.2 mph - N/A   Clear
3:15 PM 68.0 °F - 28.4 °F 23% 29.84 in 10.0 mi SSE 10.4 mph - N/A   Clear
3:35 PM 68.0 °F - 28.4 °F 23% 29.84 in 10.0 mi Calm Calm - N/A   Clear
3:55 PM 68.0 °F - 32.0 °F 26% 29.84 in 10.0 mi East 13.8 mph - N/A   Clear
4:15 PM 68.0 °F - 32.0 °F 26% 29.83 in 10.0 mi East 15.0 mph 20.7 mph N/A   Clear
4:35 PM 66.2 °F - 33.8 °F 30% 29.83 in 10.0 mi ENE 18.4 mph - N/A   Clear
4:55 PM 66.2 °F - 32.0 °F 28% 29.84 in 10.0 mi ENE 16.1 mph - N/A   Clear
5:15 PM 64.4 °F - 33.8 °F 32% 29.85 in 10.0 mi ENE 20.7 mph - N/A   Clear
5:35 PM 60.8 °F - 33.8 °F 36% 29.86 in 10.0 mi NE 17.3 mph 26.5 mph N/A   Clear
5:55 PM 55.4 °F - 32.0 °F 41% 29.88 in 10.0 mi NE 23.0 mph 32.2 mph N/A   Clear
6:15 PM 51.8 °F - 30.2 °F 44% 29.90 in 10.0 mi NE 25.3 mph 36.8 mph N/A   Clear
6:35 PM 50.0 °F - 30.2 °F 47% 29.92 in 10.0 mi NE 24.2 mph 36.8 mph N/A   Clear
6:55 PM 48.2 °F - 30.2 °F 50% 29.94 in 10.0 mi NE 19.6 mph 39.1 mph N/A   Clear
7:15 PM 48.2 °F - 30.2 °F 50% 29.95 in 10.0 mi NE 19.6 mph 32.2 mph N/A   Clear
7:35 PM 46.4 °F 37.9 °F 30.2 °F 53% 29.96 in 10.0 mi NE 25.3 mph 33.4 mph N/A   Scattered Clouds
7:55 PM 44.6 °F 35.9 °F 30.2 °F 57% 29.99 in 10.0 mi NNE 23.0 mph 31.1 mph N/A   Overcast
8:15 PM 41.0 °F 31.4 °F 30.2 °F 65% 30.00 in 10.0 mi NE 21.9 mph 31.1 mph N/A   Overcast
8:35 PM 41.0 °F 31.6 °F 28.4 °F 61% 30.03 in 10.0 mi NNE 20.7 mph 31.1 mph N/A   Overcast
8:55 PM 39.2 °F 27.4 °F 28.4 °F 65% 30.04 in 10.0 mi NNE 29.9 mph 42.6 mph N/A   Overcast
9:15 PM 39.2 °F 29.0 °F 26.6 °F 61% 30.05 in 10.0 mi NE 21.9 mph 31.1 mph N/A   Overcast
9:35 PM 37.4 °F 26.6 °F 26.6 °F 65% 30.07 in 10.0 mi NE 21.9 mph 35.7 mph N/A   Overcast
9:55 PM 37.4 °F 26.4 °F 26.6 °F 65% 30.10 in 10.0 mi NNE 23.0 mph 32.2 mph N/A   Overcast
10:15 PM 35.6 °F 23.7 °F 28.4 °F 75% 30.11 in 10.0 mi NNE 24.2 mph - N/A   Overcast
10:35 PM 35.6 °F 24.2 °F 28.4 °F 75% 30.13 in 10.0 mi NNE 21.9 mph 28.8 mph N/A   Overcast
10:55 PM 35.6 °F 24.2 °F 26.6 °F 70% 30.13 in 10.0 mi NNE 21.9 mph 28.8 mph N/A   Overcast
11:15 PM 35.6 °F 24.2 °F 26.6 °F 70% 30.14 in 10.0 mi NNE 21.9 mph 31.1 mph N/A   Overcast
11:35 PM 35.6 °F 23.7 °F 26.6 °F 70% 30.15 in 10.0 mi NNE 24.2 mph 29.9 mph N/A   Overcast
11:55 PM 35.6 °F 24.0 °F 28.4 °F 75% 30.16 in 10.0 mi NNE 23.0 mph - N/A   Overcast